sensor_id;sensor_type;location;lat;lon;timestamp;P1;durP1;ratioP1;P2;durP2;ratioP2
9224;SDS011;4647;48.072;11.616;2023-02-04T00:01:19;1.70;;;1.60;;
9224;SDS011;4647;48.072;11.616;2023-02-04T00:03:48;2.77;;;1.80;;
9224;SDS011;4647;48.072;11.616;2023-02-04T00:06:16;1.97;;;1.80;;
9224;SDS011;4647;48.072;11.616;2023-02-04T00:08:45;1.73;;;1.63;;
9224;SDS011;4647;48.072;11.616;2023-02-04T00:11:16;3.03;;;2.10;;
9224;SDS011;4647;48.072;11.616;2023-02-04T00:13:45;2.20;;;2.00;;
9224;SDS011;4647;48.072;11.616;2023-02-04T00:16:13;2.30;;;2.10;;
9224;SDS011;4647;48.072;11.616;2023-02-04T00:18:42;1.87;;;1.77;;
9224;SDS011;4647;48.072;11.616;2023-02-04T00:21:10;2.30;;;2.10;;
9224;SDS011;4647;48.072;11.616;2023-02-04T00:23:39;2.00;;;1.80;;
9224;SDS011;4647;48.072;11.616;2023-02-04T00:26:08;2.00;;;1.80;;
9224;SDS011;4647;48.072;11.616;2023-02-04T00:28:39;2.73;;;2.03;;
9224;SDS011;4647;48.072;11.616;2023-02-04T00:31:08;3.30;;;1.97;;
9224;SDS011;4647;48.072;11.616;2023-02-04T00:33:36;3.93;;;2.10;;
9224;SDS011;4647;48.072;11.616;2023-02-04T00:36:07;2.87;;;2.20;;
9224;SDS011;4647;48.072;11.616;2023-02-04T00:38:36;2.30;;;2.10;;
9224;SDS011;4647;48.072;11.616;2023-02-04T00:41:04;2.40;;;2.00;;
9224;SDS011;4647;48.072;11.616;2023-02-04T00:43:33;2.50;;;2.17;;
9224;SDS011;4647;48.072;11.616;2023-02-04T00:46:04;2.00;;;1.80;;
9224;SDS011;4647;48.072;11.616;2023-02-04T00:48:32;1.97;;;1.87;;
9224;SDS011;4647;48.072;11.616;2023-02-04T00:51:01;1.80;;;1.70;;
9224;SDS011;4647;48.072;11.616;2023-02-04T00:53:29;4.17;;;1.90;;
9224;SDS011;4647;48.072;11.616;2023-02-04T00:55:58;2.23;;;2.03;;
9224;SDS011;4647;48.072;11.616;2023-02-04T00:58:26;2.20;;;2.00;;
9224;SDS011;4647;48.072;11.616;2023-02-04T01:00:55;1.83;;;1.70;;
9224;SDS011;4647;48.072;11.616;2023-02-04T01:03:26;2.63;;;1.60;;
9224;SDS011;4647;48.072;11.616;2023-02-04T01:05:54;2.67;;;1.50;;
9224;SDS011;4647;48.072;11.616;2023-02-04T01:08:23;1.73;;;1.63;;
9224;SDS011;4647;48.072;11.616;2023-02-04T01:10:51;1.60;;;1.50;;
9224;SDS011;4647;48.072;11.616;2023-02-04T01:13:20;1.90;;;1.40;;
9224;SDS011;4647;48.072;11.616;2023-02-04T01:15:48;1.50;;;1.40;;
9224;SDS011;4647;48.072;11.616;2023-02-04T01:18:16;2.13;;;1.40;;
9224;SDS011;4647;48.072;11.616;2023-02-04T01:20:47;1.30;;;1.20;;
9224;SDS011;4647;48.072;11.616;2023-02-04T01:23:16;1.57;;;1.47;;
9224;SDS011;4647;48.072;11.616;2023-02-04T01:25:44;4.70;;;1.57;;
9224;SDS011;4647;48.072;11.616;2023-02-04T01:28:13;2.43;;;1.90;;
9224;SDS011;4647;48.072;11.616;2023-02-04T01:30:41;1.80;;;1.70;;
9224;SDS011;4647;48.072;11.616;2023-02-04T01:33:09;1.60;;;1.50;;
9224;SDS011;4647;48.072;11.616;2023-02-04T01:35:38;1.60;;;1.50;;
9224;SDS011;4647;48.072;11.616;2023-02-04T01:38:09;1.60;;;1.50;;
9224;SDS011;4647;48.072;11.616;2023-02-04T01:40:37;3.37;;;1.70;;
9224;SDS011;4647;48.072;11.616;2023-02-04T01:43:06;1.63;;;1.40;;
9224;SDS011;4647;48.072;11.616;2023-02-04T01:45:35;1.53;;;1.43;;
9224;SDS011;4647;48.072;11.616;2023-02-04T01:48:04;1.40;;;1.30;;
9224;SDS011;4647;48.072;11.616;2023-02-04T01:50:35;2.97;;;1.20;;
9224;SDS011;4647;48.072;11.616;2023-02-04T01:53:03;1.50;;;1.40;;
9224;SDS011;4647;48.072;11.616;2023-02-04T01:55:35;2.07;;;1.50;;
9224;SDS011;4647;48.072;11.616;2023-02-04T01:58:03;1.87;;;1.20;;
9224;SDS011;4647;48.072;11.616;2023-02-04T02:00:32;1.80;;;1.30;;
9224;SDS011;4647;48.072;11.616;2023-02-04T02:03:01;1.67;;;1.30;;
9224;SDS011;4647;48.072;11.616;2023-02-04T02:05:30;3.57;;;1.50;;
9224;SDS011;4647;48.072;11.616;2023-02-04T02:08:04;2.63;;;1.30;;
9224;SDS011;4647;48.072;11.616;2023-02-04T02:10:37;3.50;;;1.57;;
9224;SDS011;4647;48.072;11.616;2023-02-04T02:13:09;3.67;;;1.70;;
9224;SDS011;4647;48.072;11.616;2023-02-04T02:15:39;3.47;;;2.20;;
9224;SDS011;4647;48.072;11.616;2023-02-04T02:18:08;5.77;;;2.30;;
9224;SDS011;4647;48.072;11.616;2023-02-04T02:20:37;4.80;;;2.20;;
9224;SDS011;4647;48.072;11.616;2023-02-04T02:23:10;6.53;;;2.43;;
9224;SDS011;4647;48.072;11.616;2023-02-04T02:25:47;8.20;;;2.80;;
9224;SDS011;4647;48.072;11.616;2023-02-04T02:28:17;7.47;;;3.10;;
9224;SDS011;4647;48.072;11.616;2023-02-04T02:30:48;13.43;;;3.37;;
9224;SDS011;4647;48.072;11.616;2023-02-04T02:33:18;9.83;;;3.50;;
9224;SDS011;4647;48.072;11.616;2023-02-04T02:35:49;5.20;;;3.00;;
9224;SDS011;4647;48.072;11.616;2023-02-04T02:38:18;8.67;;;3.77;;
9224;SDS011;4647;48.072;11.616;2023-02-04T02:40:50;11.43;;;3.70;;
9224;SDS011;4647;48.072;11.616;2023-02-04T02:43:21;6.37;;;3.60;;
9224;SDS011;4647;48.072;11.616;2023-02-04T02:45:52;11.50;;;4.10;;
9224;SDS011;4647;48.072;11.616;2023-02-04T02:48:21;11.97;;;5.57;;
9224;SDS011;4647;48.072;11.616;2023-02-04T02:50:50;11.00;;;4.90;;
9224;SDS011;4647;48.072;11.616;2023-02-04T02:53:19;12.23;;;4.03;;
9224;SDS011;4647;48.072;11.616;2023-02-04T02:55:50;10.90;;;4.57;;
9224;SDS011;4647;48.072;11.616;2023-02-04T02:58:22;14.10;;;4.63;;
9224;SDS011;4647;48.072;11.616;2023-02-04T03:00:52;11.93;;;4.43;;
9224;SDS011;4647;48.072;11.616;2023-02-04T03:03:22;12.37;;;5.30;;
9224;SDS011;4647;48.072;11.616;2023-02-04T03:05:53;12.87;;;5.10;;
9224;SDS011;4647;48.072;11.616;2023-02-04T03:08:24;12.53;;;4.87;;
9224;SDS011;4647;48.072;11.616;2023-02-04T03:10:56;13.10;;;4.80;;
9224;SDS011;4647;48.072;11.616;2023-02-04T03:13:25;11.63;;;4.60;;
9224;SDS011;4647;48.072;11.616;2023-02-04T03:15:53;18.37;;;5.10;;
9224;SDS011;4647;48.072;11.616;2023-02-04T03:18:22;14.53;;;4.57;;
9224;SDS011;4647;48.072;11.616;2023-02-04T03:20:51;17.63;;;4.80;;
9224;SDS011;4647;48.072;11.616;2023-02-04T03:23:20;16.50;;;4.70;;
9224;SDS011;4647;48.072;11.616;2023-02-04T03:25:48;21.47;;;5.80;;
9224;SDS011;4647;48.072;11.616;2023-02-04T03:28:20;14.00;;;4.70;;
9224;SDS011;4647;48.072;11.616;2023-02-04T03:30:48;16.33;;;4.50;;
9224;SDS011;4647;48.072;11.616;2023-02-04T03:33:20;13.93;;;5.00;;
9224;SDS011;4647;48.072;11.616;2023-02-04T03:35:50;16.77;;;5.90;;
9224;SDS011;4647;48.072;11.616;2023-02-04T03:38:18;17.00;;;5.70;;
9224;SDS011;4647;48.072;11.616;2023-02-04T03:40:47;15.83;;;5.40;;
9224;SDS011;4647;48.072;11.616;2023-02-04T03:43:15;17.17;;;5.37;;
9224;SDS011;4647;48.072;11.616;2023-02-04T03:45:46;18.07;;;5.73;;
9224;SDS011;4647;48.072;11.616;2023-02-04T03:48:15;19.43;;;5.00;;
9224;SDS011;4647;48.072;11.616;2023-02-04T03:50:43;16.30;;;5.87;;
9224;SDS011;4647;48.072;11.616;2023-02-04T03:53:12;14.33;;;4.10;;
9224;SDS011;4647;48.072;11.616;2023-02-04T03:55:41;15.20;;;4.90;;
9224;SDS011;4647;48.072;11.616;2023-02-04T03:58:09;12.40;;;4.70;;
9224;SDS011;4647;48.072;11.616;2023-02-04T04:00:37;16.77;;;4.50;;
9224;SDS011;4647;48.072;11.616;2023-02-04T04:03:08;16.90;;;4.23;;
9224;SDS011;4647;48.072;11.616;2023-02-04T04:05:37;11.50;;;4.10;;
9224;SDS011;4647;48.072;11.616;2023-02-04T04:08:05;13.83;;;4.67;;
9224;SDS011;4647;48.072;11.616;2023-02-04T04:10:34;13.30;;;3.87;;
9224;SDS011;4647;48.072;11.616;2023-02-04T04:13:02;17.40;;;4.90;;
9224;SDS011;4647;48.072;11.616;2023-02-04T04:15:31;14.93;;;4.50;;
9224;SDS011;4647;48.072;11.616;2023-02-04T04:17:59;21.70;;;4.50;;
9224;SDS011;4647;48.072;11.616;2023-02-04T04:20:31;18.43;;;4.70;;
9224;SDS011;4647;48.072;11.616;2023-02-04T04:22:59;13.43;;;4.53;;
9224;SDS011;4647;48.072;11.616;2023-02-04T04:25:28;16.80;;;5.23;;
9224;SDS011;4647;48.072;11.616;2023-02-04T04:27:56;10.77;;;4.50;;
9224;SDS011;4647;48.072;11.616;2023-02-04T04:30:24;20.83;;;5.03;;
9224;SDS011;4647;48.072;11.616;2023-02-04T04:32:53;15.20;;;4.40;;
9224;SDS011;4647;48.072;11.616;2023-02-04T04:35:21;18.30;;;4.53;;
9224;SDS011;4647;48.072;11.616;2023-02-04T04:37:52;12.53;;;4.27;;
9224;SDS011;4647;48.072;11.616;2023-02-04T04:40:21;14.90;;;4.30;;
9224;SDS011;4647;48.072;11.616;2023-02-04T04:42:49;18.27;;;4.77;;
9224;SDS011;4647;48.072;11.616;2023-02-04T04:45:18;12.30;;;3.73;;
9224;SDS011;4647;48.072;11.616;2023-02-04T04:47:47;18.47;;;4.77;;
9224;SDS011;4647;48.072;11.616;2023-02-04T04:50:15;22.13;;;4.40;;
9224;SDS011;4647;48.072;11.616;2023-02-04T04:52:44;16.03;;;5.70;;
9224;SDS011;4647;48.072;11.616;2023-02-04T04:55:15;14.97;;;4.03;;
9224;SDS011;4647;48.072;11.616;2023-02-04T04:57:44;18.47;;;4.73;;
9224;SDS011;4647;48.072;11.616;2023-02-04T05:00:14;15.70;;;4.53;;
9224;SDS011;4647;48.072;11.616;2023-02-04T05:02:45;16.77;;;4.60;;
9224;SDS011;4647;48.072;11.616;2023-02-04T05:05:13;16.37;;;4.67;;
9224;SDS011;4647;48.072;11.616;2023-02-04T05:07:42;15.63;;;4.60;;
9224;SDS011;4647;48.072;11.616;2023-02-04T05:10:10;10.93;;;3.43;;
9224;SDS011;4647;48.072;11.616;2023-02-04T05:12:41;13.50;;;4.60;;
9224;SDS011;4647;48.072;11.616;2023-02-04T05:15:09;14.80;;;4.40;;
9224;SDS011;4647;48.072;11.616;2023-02-04T05:17:38;13.43;;;4.97;;
9224;SDS011;4647;48.072;11.616;2023-02-04T05:20:07;13.43;;;4.20;;
9224;SDS011;4647;48.072;11.616;2023-02-04T05:22:37;16.13;;;4.40;;
9224;SDS011;4647;48.072;11.616;2023-02-04T05:25:06;16.00;;;4.70;;
9224;SDS011;4647;48.072;11.616;2023-02-04T05:27:34;17.60;;;5.30;;
9224;SDS011;4647;48.072;11.616;2023-02-04T05:30:06;15.33;;;4.40;;
9224;SDS011;4647;48.072;11.616;2023-02-04T05:32:37;15.20;;;4.47;;
9224;SDS011;4647;48.072;11.616;2023-02-04T05:35:05;15.40;;;4.70;;
9224;SDS011;4647;48.072;11.616;2023-02-04T05:37:34;15.77;;;4.97;;
9224;SDS011;4647;48.072;11.616;2023-02-04T05:40:03;15.53;;;4.63;;
9224;SDS011;4647;48.072;11.616;2023-02-04T05:42:32;17.87;;;4.37;;
9224;SDS011;4647;48.072;11.616;2023-02-04T05:45:01;13.70;;;4.53;;
9224;SDS011;4647;48.072;11.616;2023-02-04T05:47:32;16.73;;;4.30;;
9224;SDS011;4647;48.072;11.616;2023-02-04T05:50:01;16.70;;;4.20;;
9224;SDS011;4647;48.072;11.616;2023-02-04T05:52:29;18.13;;;4.17;;
9224;SDS011;4647;48.072;11.616;2023-02-04T05:54:57;20.70;;;4.60;;
9224;SDS011;4647;48.072;11.616;2023-02-04T05:57:27;12.93;;;3.87;;
9224;SDS011;4647;48.072;11.616;2023-02-04T05:59:55;15.73;;;4.27;;
9224;SDS011;4647;48.072;11.616;2023-02-04T06:02:24;14.50;;;4.73;;
9224;SDS011;4647;48.072;11.616;2023-02-04T06:04:55;17.63;;;4.27;;
9224;SDS011;4647;48.072;11.616;2023-02-04T06:07:23;12.70;;;4.30;;
9224;SDS011;4647;48.072;11.616;2023-02-04T06:09:52;15.93;;;4.80;;
9224;SDS011;4647;48.072;11.616;2023-02-04T06:12:21;23.33;;;7.43;;
9224;SDS011;4647;48.072;11.616;2023-02-04T06:14:49;22.13;;;7.83;;
9224;SDS011;4647;48.072;11.616;2023-02-04T06:17:17;18.90;;;7.07;;
9224;SDS011;4647;48.072;11.616;2023-02-04T06:19:46;18.47;;;5.43;;
9224;SDS011;4647;48.072;11.616;2023-02-04T06:22:17;18.60;;;5.43;;
9224;SDS011;4647;48.072;11.616;2023-02-04T06:24:48;18.70;;;5.37;;
9224;SDS011;4647;48.072;11.616;2023-02-04T06:27:16;17.00;;;4.97;;
9224;SDS011;4647;48.072;11.616;2023-02-04T06:29:47;14.83;;;4.97;;
9224;SDS011;4647;48.072;11.616;2023-02-04T06:32:16;13.57;;;4.83;;
9224;SDS011;4647;48.072;11.616;2023-02-04T06:34:45;16.23;;;4.90;;
9224;SDS011;4647;48.072;11.616;2023-02-04T06:37:13;20.97;;;5.73;;
9224;SDS011;4647;48.072;11.616;2023-02-04T06:39:45;18.43;;;5.20;;
9224;SDS011;4647;48.072;11.616;2023-02-04T06:42:13;24.53;;;6.03;;
9224;SDS011;4647;48.072;11.616;2023-02-04T06:44:42;21.53;;;5.67;;
9224;SDS011;4647;48.072;11.616;2023-02-04T06:47:11;11.27;;;4.83;;
9224;SDS011;4647;48.072;11.616;2023-02-04T06:49:39;15.77;;;4.77;;
9224;SDS011;4647;48.072;11.616;2023-02-04T06:52:08;15.53;;;5.33;;
9224;SDS011;4647;48.072;11.616;2023-02-04T06:54:36;18.97;;;5.53;;
9224;SDS011;4647;48.072;11.616;2023-02-04T06:57:08;17.43;;;5.10;;
9224;SDS011;4647;48.072;11.616;2023-02-04T06:59:37;16.93;;;4.90;;
9224;SDS011;4647;48.072;11.616;2023-02-04T07:02:07;17.17;;;5.33;;
9224;SDS011;4647;48.072;11.616;2023-02-04T07:04:35;16.07;;;5.23;;
9224;SDS011;4647;48.072;11.616;2023-02-04T07:07:04;13.40;;;4.73;;
9224;SDS011;4647;48.072;11.616;2023-02-04T07:09:32;15.37;;;4.83;;
9224;SDS011;4647;48.072;11.616;2023-02-04T07:12:01;16.57;;;4.20;;
9224;SDS011;4647;48.072;11.616;2023-02-04T07:14:32;15.57;;;4.40;;
9224;SDS011;4647;48.072;11.616;2023-02-04T07:17:01;15.43;;;4.40;;
9224;SDS011;4647;48.072;11.616;2023-02-04T07:19:29;12.90;;;4.30;;
9224;SDS011;4647;48.072;11.616;2023-02-04T07:21:59;13.00;;;3.83;;
9224;SDS011;4647;48.072;11.616;2023-02-04T07:24:27;16.07;;;4.07;;
9224;SDS011;4647;48.072;11.616;2023-02-04T07:26:56;17.13;;;4.87;;
9224;SDS011;4647;48.072;11.616;2023-02-04T07:29:24;18.87;;;4.50;;
9224;SDS011;4647;48.072;11.616;2023-02-04T07:31:55;14.67;;;4.60;;
9224;SDS011;4647;48.072;11.616;2023-02-04T07:34:24;16.20;;;4.30;;
9224;SDS011;4647;48.072;11.616;2023-02-04T07:36:52;12.43;;;4.00;;
9224;SDS011;4647;48.072;11.616;2023-02-04T07:39:21;13.50;;;4.53;;
9224;SDS011;4647;48.072;11.616;2023-02-04T07:41:49;12.63;;;3.83;;
9224;SDS011;4647;48.072;11.616;2023-02-04T07:44:17;13.63;;;4.67;;
9224;SDS011;4647;48.072;11.616;2023-02-04T07:46:46;12.43;;;4.43;;
9224;SDS011;4647;48.072;11.616;2023-02-04T07:49:18;15.57;;;4.33;;
9224;SDS011;4647;48.072;11.616;2023-02-04T07:51:46;12.87;;;4.50;;
9224;SDS011;4647;48.072;11.616;2023-02-04T07:54:15;11.50;;;4.17;;
9224;SDS011;4647;48.072;11.616;2023-02-04T07:56:43;12.43;;;4.00;;
9224;SDS011;4647;48.072;11.616;2023-02-04T07:59:12;11.87;;;4.00;;
9224;SDS011;4647;48.072;11.616;2023-02-04T08:01:40;11.93;;;4.37;;
9224;SDS011;4647;48.072;11.616;2023-02-04T08:04:09;15.57;;;4.27;;
9224;SDS011;4647;48.072;11.616;2023-02-04T08:06:40;14.27;;;4.20;;
9224;SDS011;4647;48.072;11.616;2023-02-04T08:09:08;14.50;;;3.93;;
9224;SDS011;4647;48.072;11.616;2023-02-04T08:11:36;10.77;;;4.53;;
9224;SDS011;4647;48.072;11.616;2023-02-04T08:14:05;13.53;;;4.10;;
9224;SDS011;4647;48.072;11.616;2023-02-04T08:16:33;13.33;;;3.63;;
9224;SDS011;4647;48.072;11.616;2023-02-04T08:19:02;13.63;;;4.03;;
9224;SDS011;4647;48.072;11.616;2023-02-04T08:21:31;12.20;;;3.57;;
9224;SDS011;4647;48.072;11.616;2023-02-04T08:24:03;13.50;;;3.80;;
9224;SDS011;4647;48.072;11.616;2023-02-04T08:26:32;12.10;;;3.60;;
9224;SDS011;4647;48.072;11.616;2023-02-04T08:29:01;12.70;;;3.60;;
9224;SDS011;4647;48.072;11.616;2023-02-04T08:31:29;13.10;;;3.87;;
9224;SDS011;4647;48.072;11.616;2023-02-04T08:33:57;11.63;;;3.67;;
9224;SDS011;4647;48.072;11.616;2023-02-04T08:36:26;12.60;;;3.60;;
9224;SDS011;4647;48.072;11.616;2023-02-04T08:38:55;12.97;;;3.80;;
9224;SDS011;4647;48.072;11.616;2023-02-04T08:41:26;12.63;;;3.30;;
9224;SDS011;4647;48.072;11.616;2023-02-04T08:43:54;10.20;;;3.60;;
9224;SDS011;4647;48.072;11.616;2023-02-04T08:46:23;15.37;;;3.60;;
9224;SDS011;4647;48.072;11.616;2023-02-04T08:48:51;16.20;;;3.80;;
9224;SDS011;4647;48.072;11.616;2023-02-04T08:51:20;11.57;;;3.53;;
9224;SDS011;4647;48.072;11.616;2023-02-04T08:53:48;14.20;;;3.80;;
9224;SDS011;4647;48.072;11.616;2023-02-04T08:56:17;10.97;;;3.70;;
9224;SDS011;4647;48.072;11.616;2023-02-04T08:58:48;11.27;;;3.73;;
9224;SDS011;4647;48.072;11.616;2023-02-04T09:01:17;12.63;;;3.87;;
9224;SDS011;4647;48.072;11.616;2023-02-04T09:03:45;13.33;;;3.47;;
9224;SDS011;4647;48.072;11.616;2023-02-04T09:06:14;13.77;;;3.60;;
9224;SDS011;4647;48.072;11.616;2023-02-04T09:08:43;13.83;;;3.50;;
9224;SDS011;4647;48.072;11.616;2023-02-04T09:11:11;9.93;;;4.00;;
9224;SDS011;4647;48.072;11.616;2023-02-04T09:13:40;13.47;;;3.77;;
9224;SDS011;4647;48.072;11.616;2023-02-04T09:16:11;11.97;;;4.20;;
9224;SDS011;4647;48.072;11.616;2023-02-04T09:18:39;13.73;;;4.50;;
9224;SDS011;4647;48.072;11.616;2023-02-04T09:21:07;15.57;;;3.93;;
9224;SDS011;4647;48.072;11.616;2023-02-04T09:23:36;14.03;;;4.30;;
9224;SDS011;4647;48.072;11.616;2023-02-04T09:26:04;13.97;;;4.20;;
9224;SDS011;4647;48.072;11.616;2023-02-04T09:28:33;11.27;;;3.73;;
9224;SDS011;4647;48.072;11.616;2023-02-04T09:31:01;12.50;;;3.93;;
9224;SDS011;4647;48.072;11.616;2023-02-04T09:33:33;17.37;;;3.83;;
9224;SDS011;4647;48.072;11.616;2023-02-04T09:36:02;10.83;;;3.97;;
9224;SDS011;4647;48.072;11.616;2023-02-04T09:38:31;16.97;;;4.43;;
9224;SDS011;4647;48.072;11.616;2023-02-04T09:41:02;13.27;;;4.10;;
9224;SDS011;4647;48.072;11.616;2023-02-04T09:43:34;16.23;;;4.10;;
9224;SDS011;4647;48.072;11.616;2023-02-04T09:46:06;12.23;;;4.07;;
9224;SDS011;4647;48.072;11.616;2023-02-04T09:48:39;10.03;;;3.53;;
9224;SDS011;4647;48.072;11.616;2023-02-04T09:51:09;13.23;;;4.27;;
9224;SDS011;4647;48.072;11.616;2023-02-04T09:53:41;9.27;;;3.67;;
9224;SDS011;4647;48.072;11.616;2023-02-04T09:56:09;11.83;;;3.70;;
9224;SDS011;4647;48.072;11.616;2023-02-04T09:58:39;9.80;;;3.77;;
9224;SDS011;4647;48.072;11.616;2023-02-04T10:01:11;13.00;;;3.73;;
9224;SDS011;4647;48.072;11.616;2023-02-04T10:03:44;11.53;;;3.33;;
9224;SDS011;4647;48.072;11.616;2023-02-04T10:06:16;10.67;;;3.40;;
9224;SDS011;4647;48.072;11.616;2023-02-04T10:08:46;10.63;;;3.17;;
9224;SDS011;4647;48.072;11.616;2023-02-04T10:11:16;11.97;;;3.53;;
9224;SDS011;4647;48.072;11.616;2023-02-04T10:13:47;13.87;;;3.70;;
9224;SDS011;4647;48.072;11.616;2023-02-04T10:16:19;11.10;;;3.30;;
9224;SDS011;4647;48.072;11.616;2023-02-04T10:18:56;11.57;;;3.83;;
9224;SDS011;4647;48.072;11.616;2023-02-04T10:21:26;13.70;;;3.90;;
9224;SDS011;4647;48.072;11.616;2023-02-04T10:23:56;11.67;;;3.27;;
9224;SDS011;4647;48.072;11.616;2023-02-04T10:26:28;10.63;;;3.43;;
9224;SDS011;4647;48.072;11.616;2023-02-04T10:28:59;13.47;;;3.63;;
9224;SDS011;4647;48.072;11.616;2023-02-04T10:31:29;10.47;;;3.87;;
9224;SDS011;4647;48.072;11.616;2023-02-04T10:34:06;13.03;;;4.23;;
9224;SDS011;4647;48.072;11.616;2023-02-04T10:36:39;10.33;;;3.97;;
9224;SDS011;4647;48.072;11.616;2023-02-04T10:39:13;12.83;;;4.13;;
9224;SDS011;4647;48.072;11.616;2023-02-04T10:41:43;6.60;;;2.67;;
9224;SDS011;4647;48.072;11.616;2023-02-04T10:44:14;5.27;;;2.30;;
9224;SDS011;4647;48.072;11.616;2023-02-04T10:46:45;3.20;;;1.90;;
9224;SDS011;4647;48.072;11.616;2023-02-04T10:49:18;9.43;;;2.27;;
9224;SDS011;4647;48.072;11.616;2023-02-04T10:51:49;5.73;;;2.10;;
9224;SDS011;4647;48.072;11.616;2023-02-04T10:54:19;5.93;;;2.10;;
9224;SDS011;4647;48.072;11.616;2023-02-04T10:56:56;4.00;;;1.90;;
9224;SDS011;4647;48.072;11.616;2023-02-04T10:59:33;4.50;;;2.07;;
9224;SDS011;4647;48.072;11.616;2023-02-04T11:02:12;7.00;;;2.60;;
9224;SDS011;4647;48.072;11.616;2023-02-04T11:05:01;5.97;;;2.20;;
9224;SDS011;4647;48.072;11.616;2023-02-04T11:07:30;4.57;;;2.13;;
9224;SDS011;4647;48.072;11.616;2023-02-04T11:09:59;3.60;;;1.80;;
9224;SDS011;4647;48.072;11.616;2023-02-04T11:12:37;4.83;;;2.13;;
9224;SDS011;4647;48.072;11.616;2023-02-04T11:18:05;5.90;;;1.93;;
9224;SDS011;4647;48.072;11.616;2023-02-04T11:20:37;4.80;;;2.10;;
9224;SDS011;4647;48.072;11.616;2023-02-04T11:23:14;8.43;;;2.87;;
9224;SDS011;4647;48.072;11.616;2023-02-04T11:26:01;6.23;;;2.80;;
9224;SDS011;4647;48.072;11.616;2023-02-04T11:28:37;6.77;;;3.40;;
9224;SDS011;4647;48.072;11.616;2023-02-04T11:31:12;5.23;;;1.90;;
9224;SDS011;4647;48.072;11.616;2023-02-04T11:34:01;4.43;;;2.00;;
9224;SDS011;4647;48.072;11.616;2023-02-04T11:36:51;3.40;;;1.90;;
9224;SDS011;4647;48.072;11.616;2023-02-04T11:39:24;4.80;;;2.20;;
9224;SDS011;4647;48.072;11.616;2023-02-04T11:41:57;4.10;;;1.73;;
9224;SDS011;4647;48.072;11.616;2023-02-04T11:44:26;5.13;;;2.00;;
9224;SDS011;4647;48.072;11.616;2023-02-04T11:46:55;3.23;;;1.50;;
9224;SDS011;4647;48.072;11.616;2023-02-04T11:49:25;3.10;;;1.70;;
9224;SDS011;4647;48.072;11.616;2023-02-04T11:52:05;3.77;;;1.73;;
9224;SDS011;4647;48.072;11.616;2023-02-04T11:54:34;2.37;;;1.63;;
9224;SDS011;4647;48.072;11.616;2023-02-04T11:57:03;3.63;;;1.80;;
9224;SDS011;4647;48.072;11.616;2023-02-04T11:59:32;4.90;;;2.30;;
9224;SDS011;4647;48.072;11.616;2023-02-04T12:02:04;3.87;;;2.50;;
9224;SDS011;4647;48.072;11.616;2023-02-04T12:04:34;3.77;;;2.07;;
9224;SDS011;4647;48.072;11.616;2023-02-04T12:07:05;4.80;;;1.93;;
9224;SDS011;4647;48.072;11.616;2023-02-04T12:09:33;6.60;;;2.20;;
9224;SDS011;4647;48.072;11.616;2023-02-04T12:12:02;5.63;;;2.03;;
9224;SDS011;4647;48.072;11.616;2023-02-04T12:14:32;3.50;;;1.80;;
9224;SDS011;4647;48.072;11.616;2023-02-04T12:17:11;4.57;;;2.33;;
9224;SDS011;4647;48.072;11.616;2023-02-04T12:19:43;4.93;;;1.90;;
9224;SDS011;4647;48.072;11.616;2023-02-04T12:22:14;4.60;;;1.53;;
9224;SDS011;4647;48.072;11.616;2023-02-04T12:24:42;2.80;;;1.83;;
9224;SDS011;4647;48.072;11.616;2023-02-04T12:27:11;4.70;;;1.97;;
9224;SDS011;4647;48.072;11.616;2023-02-04T12:29:39;4.93;;;2.00;;
9224;SDS011;4647;48.072;11.616;2023-02-04T12:32:08;4.90;;;1.90;;
9224;SDS011;4647;48.072;11.616;2023-02-04T12:34:36;2.43;;;1.67;;
9224;SDS011;4647;48.072;11.616;2023-02-04T12:37:05;6.43;;;2.10;;
9224;SDS011;4647;48.072;11.616;2023-02-04T12:39:36;4.90;;;2.10;;
9224;SDS011;4647;48.072;11.616;2023-02-04T12:42:04;3.73;;;2.10;;
9224;SDS011;4647;48.072;11.616;2023-02-04T12:44:33;3.10;;;1.73;;
9224;SDS011;4647;48.072;11.616;2023-02-04T12:47:02;3.33;;;2.10;;
9224;SDS011;4647;48.072;11.616;2023-02-04T12:49:30;3.93;;;2.03;;
9224;SDS011;4647;48.072;11.616;2023-02-04T12:51:59;3.83;;;2.00;;
9224;SDS011;4647;48.072;11.616;2023-02-04T12:54:27;3.23;;;1.90;;
9224;SDS011;4647;48.072;11.616;2023-02-04T12:56:58;3.23;;;2.10;;
9224;SDS011;4647;48.072;11.616;2023-02-04T12:59:27;3.33;;;1.90;;
9224;SDS011;4647;48.072;11.616;2023-02-04T13:01:55;4.87;;;2.10;;
9224;SDS011;4647;48.072;11.616;2023-02-04T13:04:24;6.10;;;1.97;;
9224;SDS011;4647;48.072;11.616;2023-02-04T13:06:52;4.87;;;2.50;;
9224;SDS011;4647;48.072;11.616;2023-02-04T13:09:21;5.37;;;2.20;;
9224;SDS011;4647;48.072;11.616;2023-02-04T13:11:49;2.67;;;2.20;;
9224;SDS011;4647;48.072;11.616;2023-02-04T13:14:21;6.67;;;3.70;;
9224;SDS011;4647;48.072;11.616;2023-02-04T13:16:50;3.60;;;2.13;;
9224;SDS011;4647;48.072;11.616;2023-02-04T13:19:18;3.60;;;2.00;;
9224;SDS011;4647;48.072;11.616;2023-02-04T13:21:47;3.17;;;1.97;;
9224;SDS011;4647;48.072;11.616;2023-02-04T13:24:15;3.67;;;2.20;;
9224;SDS011;4647;48.072;11.616;2023-02-04T13:26:43;4.20;;;2.20;;
9224;SDS011;4647;48.072;11.616;2023-02-04T13:29:12;3.37;;;2.00;;
9224;SDS011;4647;48.072;11.616;2023-02-04T13:31:43;3.60;;;1.90;;
9224;SDS011;4647;48.072;11.616;2023-02-04T13:34:11;2.80;;;1.80;;
9224;SDS011;4647;48.072;11.616;2023-02-04T13:36:40;3.73;;;2.40;;
9224;SDS011;4647;48.072;11.616;2023-02-04T13:39:08;3.93;;;2.30;;
9224;SDS011;4647;48.072;11.616;2023-02-04T13:41:37;5.73;;;2.07;;
9224;SDS011;4647;48.072;11.616;2023-02-04T13:44:05;4.43;;;2.00;;
9224;SDS011;4647;48.072;11.616;2023-02-04T13:46:34;4.80;;;2.37;;
9224;SDS011;4647;48.072;11.616;2023-02-04T13:49:05;2.97;;;2.00;;
9224;SDS011;4647;48.072;11.616;2023-02-04T13:51:34;4.77;;;2.00;;
9224;SDS011;4647;48.072;11.616;2023-02-04T13:54:02;4.57;;;2.40;;
9224;SDS011;4647;48.072;11.616;2023-02-04T13:56:31;4.07;;;2.03;;
9224;SDS011;4647;48.072;11.616;2023-02-04T13:59:00;4.43;;;1.97;;
9224;SDS011;4647;48.072;11.616;2023-02-04T14:01:29;4.83;;;2.10;;
9224;SDS011;4647;48.072;11.616;2023-02-04T14:03:57;5.23;;;2.30;;
9224;SDS011;4647;48.072;11.616;2023-02-04T14:06:28;5.60;;;2.30;;
9224;SDS011;4647;48.072;11.616;2023-02-04T14:08:58;4.10;;;2.50;;
9224;SDS011;4647;48.072;11.616;2023-02-04T14:11:27;4.53;;;2.57;;
9224;SDS011;4647;48.072;11.616;2023-02-04T14:13:56;3.53;;;2.40;;
9224;SDS011;4647;48.072;11.616;2023-02-04T14:16:24;5.10;;;2.20;;
9224;SDS011;4647;48.072;11.616;2023-02-04T14:18:53;4.63;;;2.40;;
9224;SDS011;4647;48.072;11.616;2023-02-04T14:21:21;3.40;;;2.03;;
9224;SDS011;4647;48.072;11.616;2023-02-04T14:23:52;3.53;;;2.10;;
9224;SDS011;4647;48.072;11.616;2023-02-04T14:26:20;3.50;;;2.07;;
9224;SDS011;4647;48.072;11.616;2023-02-04T14:28:49;3.57;;;2.00;;
9224;SDS011;4647;48.072;11.616;2023-02-04T14:31:18;3.10;;;1.60;;
9224;SDS011;4647;48.072;11.616;2023-02-04T14:33:46;2.43;;;1.60;;
9224;SDS011;4647;48.072;11.616;2023-02-04T14:36:14;1.80;;;1.43;;
9224;SDS011;4647;48.072;11.616;2023-02-04T14:38:43;3.17;;;1.63;;
9224;SDS011;4647;48.072;11.616;2023-02-04T14:41:14;1.67;;;1.47;;
9224;SDS011;4647;48.072;11.616;2023-02-04T14:43:45;2.63;;;1.60;;
9224;SDS011;4647;48.072;11.616;2023-02-04T14:46:14;1.93;;;1.70;;
9224;SDS011;4647;48.072;11.616;2023-02-04T14:48:42;2.73;;;1.80;;
9224;SDS011;4647;48.072;11.616;2023-02-04T14:51:12;1.77;;;1.63;;
9224;SDS011;4647;48.072;11.616;2023-02-04T14:53:40;2.30;;;1.70;;
9224;SDS011;4647;48.072;11.616;2023-02-04T14:56:08;2.87;;;1.70;;
9224;SDS011;4647;48.072;11.616;2023-02-04T14:58:40;2.30;;;1.50;;
9224;SDS011;4647;48.072;11.616;2023-02-04T15:01:08;2.53;;;1.70;;
9224;SDS011;4647;48.072;11.616;2023-02-04T15:03:37;2.50;;;1.70;;
9224;SDS011;4647;48.072;11.616;2023-02-04T15:06:05;1.97;;;1.40;;
9224;SDS011;4647;48.072;11.616;2023-02-04T15:08:34;3.23;;;1.53;;
9224;SDS011;4647;48.072;11.616;2023-02-04T15:11:02;2.03;;;1.53;;
9224;SDS011;4647;48.072;11.616;2023-02-04T15:13:31;3.27;;;1.80;;